createdAt,value
2023-05-23T00:00:14.519Z,19.30
2023-05-23T00:02:47.155Z,19.30
2023-05-23T00:05:18.097Z,19.20
2023-05-23T00:07:46.888Z,19.20
2023-05-23T00:10:15.788Z,19.20
2023-05-23T00:12:44.920Z,18.90
2023-05-23T00:15:15.192Z,18.80
2023-05-23T00:17:44.840Z,18.90
2023-05-23T00:20:14.507Z,19.00
2023-05-23T00:22:43.430Z,19.10
2023-05-23T00:25:12.630Z,19.10
2023-05-23T00:27:41.354Z,19.00
2023-05-23T00:30:11.074Z,19.00
2023-05-23T00:32:41.331Z,18.90
2023-05-23T00:35:11.045Z,18.90
2023-05-23T00:37:40.599Z,18.90
2023-05-23T00:40:11.161Z,18.90
2023-05-23T00:42:39.920Z,19.00
2023-05-23T00:45:10.047Z,18.90
2023-05-23T00:47:41.059Z,18.90
2023-05-23T00:50:14.810Z,18.90
2023-05-23T00:52:46.488Z,18.80
2023-05-23T00:55:15.668Z,18.80
2023-05-23T00:57:45.048Z,18.60
2023-05-23T01:00:15.688Z,18.70
2023-05-23T01:02:51.370Z,18.70
2023-05-23T01:05:22.675Z,18.70
2023-05-23T01:07:52.778Z,18.80
2023-05-23T01:10:24.937Z,18.70
2023-05-23T01:13:11.352Z,18.80
2023-05-23T01:15:46.888Z,18.70
2023-05-23T01:18:28.322Z,18.70
2023-05-23T01:21:02.650Z,18.70
2023-05-23T01:24:03.802Z,18.60
2023-05-23T01:26:56.254Z,18.60
2023-05-23T01:29:30.642Z,18.70
2023-05-23T01:32:01.664Z,18.60
2023-05-23T01:34:32.833Z,18.50
2023-05-23T01:37:01.796Z,18.50
2023-05-23T01:39:30.717Z,18.60
2023-05-23T01:42:01.322Z,18.50
2023-05-23T01:44:32.409Z,18.30
2023-05-23T01:47:02.432Z,18.40
2023-05-23T01:49:33.033Z,18.20
2023-05-23T01:52:03.478Z,18.30
2023-05-23T01:54:35.587Z,18.10
2023-05-23T01:57:06.828Z,18.20
2023-05-23T01:59:38.588Z,18.20
2023-05-23T02:02:07.872Z,18.10
2023-05-23T02:04:36.965Z,18.10
2023-05-23T02:07:06.093Z,18.10
2023-05-23T02:09:34.817Z,18.20
2023-05-23T02:12:03.937Z,18.30
2023-05-23T02:14:32.623Z,18.10
2023-05-23T02:17:03.024Z,17.90
2023-05-23T02:19:31.948Z,17.90
2023-05-23T02:22:01.017Z,17.70
2023-05-23T02:24:29.728Z,17.50
2023-05-23T02:26:58.406Z,17.40
2023-05-23T02:29:27.115Z,17.50
2023-05-23T02:31:56.155Z,17.60
2023-05-23T02:34:26.621Z,17.70
2023-05-23T02:36:55.349Z,17.60
2023-05-23T02:39:24.191Z,17.40
2023-05-23T02:41:52.892Z,17.60
2023-05-23T02:44:21.870Z,17.70
2023-05-23T02:46:50.738Z,17.70
2023-05-23T02:49:20.346Z,17.70
2023-05-23T02:51:50.846Z,17.50
2023-05-23T02:54:19.907Z,17.70
2023-05-23T02:56:48.658Z,17.60
2023-05-23T02:59:18.048Z,17.60
2023-05-23T03:01:46.978Z,17.60
2023-05-23T03:04:16.143Z,17.60
2023-05-23T03:06:45.204Z,17.60
2023-05-23T03:09:17.991Z,17.60
2023-05-23T03:11:46.856Z,17.60
2023-05-23T03:14:16.360Z,17.50
2023-05-23T03:16:45.569Z,17.70
2023-05-23T03:19:14.726Z,17.50
2023-05-23T03:21:44.416Z,17.60
2023-05-23T03:24:14.809Z,17.60
2023-05-23T03:26:43.644Z,17.50
2023-05-23T03:29:14.113Z,17.40
2023-05-23T03:31:45.505Z,17.60
2023-05-23T03:34:14.425Z,17.60
2023-05-23T03:36:43.333Z,17.60
2023-05-23T03:39:12.473Z,17.60
2023-05-23T03:41:42.624Z,17.50
2023-05-23T03:44:11.504Z,17.60
2023-05-23T03:46:40.666Z,17.60
2023-05-23T03:49:09.820Z,17.50
2023-05-23T03:51:38.656Z,17.30
2023-05-23T03:54:07.947Z,17.30
2023-05-23T03:56:36.779Z,17.30
2023-05-23T03:59:07.661Z,17.30
2023-05-23T04:01:36.423Z,17.30
2023-05-23T04:04:05.381Z,17.30
2023-05-23T04:06:38.425Z,17.30
2023-05-23T04:09:07.494Z,17.30
2023-05-23T04:11:41.550Z,17.30
2023-05-23T04:14:12.639Z,17.30
2023-05-23T04:16:42.678Z,17.30
2023-05-23T04:19:12.568Z,17.30
2023-05-23T04:21:45.905Z,17.30
2023-05-23T04:24:19.161Z,17.40
2023-05-23T04:26:48.947Z,17.40
2023-05-23T04:29:19.176Z,17.50
2023-05-23T04:31:48.137Z,17.40
2023-05-23T04:34:17.726Z,17.40
2023-05-23T04:36:46.989Z,17.40
2023-05-23T04:39:16.582Z,17.40
2023-05-23T04:42:00.062Z,17.40
2023-05-23T04:44:50.156Z,17.40
2023-05-23T04:47:25.025Z,17.30
2023-05-23T04:50:09.987Z,17.30
2023-05-23T04:52:39.035Z,17.30
2023-05-23T04:55:09.245Z,17.40
2023-05-23T04:57:38.951Z,17.30
2023-05-23T05:00:12.925Z,17.30
2023-05-23T05:02:42.996Z,17.40
2023-05-23T05:05:12.211Z,17.40
2023-05-23T05:07:41.083Z,17.50
2023-05-23T05:10:16.970Z,17.40
2023-05-23T05:12:49.613Z,17.50
2023-05-23T05:15:21.214Z,17.50
2023-05-23T05:17:54.896Z,17.50
2023-05-23T05:20:24.482Z,17.60
2023-05-23T05:22:58.526Z,17.40
2023-05-23T05:25:31.996Z,17.50
2023-05-23T05:28:05.522Z,17.50
2023-05-23T05:30:39.497Z,17.50
2023-05-23T05:33:09.012Z,17.50
2023-05-23T05:35:38.566Z,17.50
2023-05-23T05:38:08.560Z,17.50
2023-05-23T05:40:37.429Z,17.40
2023-05-23T05:43:06.939Z,17.60
2023-05-23T05:45:36.147Z,17.50
2023-05-23T05:48:08.165Z,17.60
2023-05-23T05:50:37.809Z,17.60
2023-05-23T05:53:08.193Z,17.60
2023-05-23T05:55:37.033Z,17.60
2023-05-23T05:58:06.053Z,17.40
2023-05-23T06:00:50.051Z,17.50
2023-05-23T06:03:20.305Z,17.50
2023-05-23T06:05:55.416Z,17.50
2023-05-23T06:08:24.353Z,17.50
2023-05-23T06:10:53.378Z,17.40
2023-05-23T06:13:22.400Z,17.30
2023-05-23T06:15:55.003Z,17.40
2023-05-23T06:18:26.732Z,17.40
2023-05-23T06:20:56.010Z,17.40
2023-05-23T06:23:24.910Z,17.40
2023-05-23T06:25:54.065Z,17.40
2023-05-23T06:28:22.761Z,17.60
2023-05-23T06:30:51.581Z,17.60
2023-05-23T06:33:20.345Z,17.50
2023-05-23T06:35:52.155Z,17.60
2023-05-23T06:38:20.856Z,17.50
2023-05-23T06:40:49.738Z,17.70
2023-05-23T06:43:19.552Z,17.60
2023-05-23T06:45:53.900Z,17.60
2023-05-23T06:48:22.660Z,17.60
2023-05-23T06:50:53.039Z,17.50
2023-05-23T06:53:23.196Z,17.50
2023-05-23T06:55:53.358Z,17.50
2023-05-23T06:58:26.877Z,17.60
2023-05-23T07:00:58.624Z,17.60
2023-05-23T07:03:30.044Z,17.70
2023-05-23T07:06:04.721Z,17.70
2023-05-23T07:08:33.960Z,17.60
2023-05-23T07:11:03.794Z,17.70
2023-05-23T07:13:44.866Z,17.80
2023-05-23T07:16:22.089Z,17.80
2023-05-23T07:19:02.975Z,17.90
2023-05-23T07:21:34.009Z,17.90
2023-05-23T07:24:03.680Z,17.90
2023-05-23T07:26:32.460Z,17.80
2023-05-23T07:29:01.971Z,17.80
2023-05-23T07:31:30.891Z,17.80
2023-05-23T07:34:01.289Z,17.90
2023-05-23T07:36:42.501Z,17.80
2023-05-23T07:39:14.784Z,17.80
2023-05-23T07:41:43.716Z,17.80
2023-05-23T07:44:12.569Z,17.90
2023-05-23T07:46:41.559Z,18.00
2023-05-23T07:49:10.318Z,18.00
2023-05-23T07:51:41.818Z,17.90
2023-05-23T07:54:13.079Z,17.90
2023-05-23T07:56:44.683Z,17.80
2023-05-23T07:59:13.481Z,18.00
2023-05-23T08:01:45.042Z,18.10
2023-05-23T08:04:19.366Z,18.10
2023-05-23T08:09:33.902Z,18.10
2023-05-23T08:12:03.060Z,18.10
2023-05-23T08:14:48.980Z,18.10
2023-05-23T08:17:27.274Z,18.00
2023-05-23T08:19:56.398Z,18.00
2023-05-23T08:22:26.558Z,18.00
2023-05-23T08:24:56.160Z,18.00
2023-05-23T08:27:24.912Z,18.10
2023-05-23T08:29:58.239Z,18.10
2023-05-23T08:32:27.009Z,18.10
2023-05-23T08:34:56.294Z,18.20
2023-05-23T08:37:26.611Z,18.10
2023-05-23T08:39:55.424Z,18.10
2023-05-23T08:42:44.415Z,18.10
2023-05-23T08:45:16.247Z,18.00
2023-05-23T08:47:47.395Z,17.90
2023-05-23T08:50:22.886Z,18.00
2023-05-23T08:52:59.815Z,17.90
2023-05-23T08:55:31.660Z,17.90
2023-05-23T08:58:04.183Z,18.00
2023-05-23T09:00:50.243Z,18.00
2023-05-23T09:03:20.324Z,18.00
2023-05-23T09:06:09.373Z,18.00
2023-05-23T09:08:40.657Z,18.10
2023-05-23T09:11:13.062Z,18.10
2023-05-23T09:13:42.502Z,18.20
2023-05-23T09:16:18.033Z,18.20
2023-05-23T09:18:58.235Z,18.30
2023-05-23T09:21:33.084Z,18.30
2023-05-23T09:24:09.422Z,18.20
2023-05-23T09:26:40.023Z,18.20
2023-05-23T09:29:08.882Z,18.10
2023-05-23T09:31:37.799Z,18.00
2023-05-23T09:34:07.062Z,17.90
2023-05-23T09:36:36.584Z,17.80
2023-05-23T09:39:06.646Z,17.70
2023-05-23T09:41:36.983Z,17.80
2023-05-23T09:44:11.082Z,17.80
2023-05-23T09:46:39.941Z,17.70
2023-05-23T09:49:19.091Z,17.70
2023-05-23T09:51:59.509Z,17.70
2023-05-23T09:54:28.438Z,17.60
2023-05-23T09:57:03.229Z,17.60
2023-05-23T09:59:36.167Z,17.60
2023-05-23T10:02:08.480Z,17.60
2023-05-23T10:04:40.169Z,17.60
2023-05-23T10:07:17.341Z,17.80
2023-05-23T10:09:58.762Z,18.00
2023-05-23T10:12:51.392Z,18.00
2023-05-23T10:15:24.064Z,18.10
2023-05-23T10:18:11.996Z,18.00
2023-05-23T10:20:45.679Z,17.90
2023-05-23T10:23:16.917Z,17.90
2023-05-23T10:25:47.809Z,17.80
2023-05-23T10:28:18.538Z,18.00
2023-05-23T10:30:48.364Z,17.80
2023-05-23T10:33:18.583Z,17.70
2023-05-23T10:36:02.536Z,17.60
2023-05-23T10:38:40.199Z,17.70
2023-05-23T10:41:18.098Z,17.60
2023-05-23T10:44:03.603Z,17.40
2023-05-23T10:46:54.946Z,17.50
2023-05-23T10:49:39.208Z,17.30
2023-05-23T10:52:09.296Z,17.20
2023-05-23T10:54:38.369Z,17.50
2023-05-23T10:57:07.982Z,17.70
2023-05-23T10:59:40.080Z,17.80
2023-05-23T11:02:16.288Z,17.90
2023-05-23T11:04:46.042Z,17.80
2023-05-23T11:07:33.751Z,17.80
2023-05-23T11:10:10.243Z,17.90
2023-05-23T11:12:42.380Z,17.90
2023-05-23T11:15:24.865Z,18.00
2023-05-23T11:17:56.742Z,18.00
2023-05-23T11:20:28.570Z,18.00
2023-05-23T11:23:04.225Z,17.90
2023-05-23T11:25:44.556Z,18.00
2023-05-23T11:28:14.581Z,17.90
2023-05-23T11:30:45.217Z,18.00
2023-05-23T11:33:16.630Z,17.90
2023-05-23T11:35:48.662Z,17.90
2023-05-23T11:38:18.913Z,17.80
2023-05-23T11:40:48.873Z,17.90
2023-05-23T11:43:19.790Z,17.70
2023-05-23T11:45:50.251Z,17.60
2023-05-23T11:48:19.251Z,17.50
2023-05-23T11:50:50.918Z,17.70
2023-05-23T11:53:22.263Z,17.60
2023-05-23T11:55:53.718Z,17.70
2023-05-23T11:58:24.138Z,17.90
2023-05-23T12:00:59.483Z,18.00
2023-05-23T12:03:28.497Z,18.00
2023-05-23T12:05:57.744Z,18.10
2023-05-23T12:08:26.966Z,18.20
2023-05-23T12:10:59.321Z,18.30
2023-05-23T12:13:30.685Z,18.40
2023-05-23T12:16:02.893Z,18.50
2023-05-23T12:18:33.805Z,18.50
2023-05-23T12:21:03.740Z,18.50
2023-05-23T12:23:34.998Z,18.40
2023-05-23T12:26:08.317Z,18.50
2023-05-23T12:28:38.851Z,18.60
2023-05-23T12:31:14.462Z,18.60
2023-05-23T12:33:45.430Z,18.80
2023-05-23T12:36:14.706Z,18.80
2023-05-23T12:38:46.464Z,18.80
2023-05-23T12:41:20.017Z,18.80
2023-05-23T12:43:55.995Z,18.60
2023-05-23T12:46:28.407Z,18.50
2023-05-23T12:48:57.429Z,18.50
2023-05-23T12:51:26.592Z,18.50
2023-05-23T12:53:56.707Z,18.60
2023-05-23T12:56:26.168Z,18.60
2023-05-23T12:58:55.726Z,18.40
2023-05-23T13:01:26.106Z,18.50
2023-05-23T13:03:55.129Z,18.40
2023-05-23T13:06:24.276Z,18.30
2023-05-23T13:08:54.689Z,18.30
2023-05-23T13:11:24.297Z,18.30
2023-05-23T13:13:53.412Z,18.30
2023-05-23T13:16:22.238Z,18.30
2023-05-23T13:18:52.596Z,18.30
2023-05-23T13:21:21.574Z,18.30
2023-05-23T13:23:50.766Z,18.20
2023-05-23T13:26:19.685Z,18.20
2023-05-23T13:28:49.995Z,18.00
2023-05-23T13:31:19.170Z,18.00
2023-05-23T13:33:48.067Z,18.10
2023-05-23T13:36:19.512Z,18.00
2023-05-23T13:38:48.356Z,18.10
2023-05-23T13:41:17.259Z,18.00
2023-05-23T13:43:47.619Z,17.90
2023-05-23T13:46:17.159Z,17.90
2023-05-23T13:48:47.551Z,17.80
2023-05-23T13:51:17.622Z,17.70
2023-05-23T13:53:46.605Z,17.60
2023-05-23T13:56:19.800Z,17.80
2023-05-23T13:58:48.589Z,17.70
2023-05-23T14:01:18.087Z,17.80
2023-05-23T14:03:47.099Z,17.90
2023-05-23T14:06:17.824Z,17.90
2023-05-23T14:08:50.505Z,17.80
2023-05-23T14:11:19.183Z,17.80
2023-05-23T14:13:48.118Z,17.80
2023-05-23T14:16:16.796Z,17.50
2023-05-23T14:18:45.891Z,17.40
2023-05-23T14:21:15.253Z,17.30
2023-05-23T14:23:45.576Z,17.40
2023-05-23T14:26:14.504Z,17.30
2023-05-23T14:28:43.255Z,17.40
2023-05-23T14:31:12.002Z,17.20
2023-05-23T14:33:40.986Z,17.20
2023-05-23T14:36:10.256Z,17.10
2023-05-23T14:38:39.806Z,17.00
2023-05-23T14:41:09.920Z,17.00
2023-05-23T14:43:38.705Z,17.00
2023-05-23T14:46:07.759Z,17.00
2023-05-23T14:48:37.011Z,17.00
2023-05-23T14:51:07.210Z,17.00
2023-05-23T14:53:35.963Z,17.00
2023-05-23T14:56:04.704Z,17.00
2023-05-23T14:58:34.824Z,16.90
2023-05-23T15:01:04.687Z,16.90
2023-05-23T15:03:33.551Z,17.10
2023-05-23T15:06:02.304Z,17.00
2023-05-23T15:08:32.028Z,17.00
2023-05-23T15:11:01.622Z,16.90
2023-05-23T15:13:30.578Z,17.00
2023-05-23T15:16:00.629Z,16.80
2023-05-23T15:18:39.773Z,16.80
2023-05-23T15:21:10.814Z,16.80
2023-05-23T15:23:39.560Z,16.90
2023-05-23T15:26:08.245Z,16.70
2023-05-23T15:28:36.937Z,16.80
2023-05-23T15:31:07.208Z,16.70
2023-05-23T15:33:35.994Z,16.80
2023-05-23T15:36:04.765Z,16.70
2023-05-23T15:38:33.413Z,16.70
2023-05-23T15:41:03.306Z,16.50
2023-05-23T15:43:32.754Z,16.60
2023-05-23T15:46:01.756Z,16.50
2023-05-23T15:48:32.069Z,16.40
2023-05-23T15:51:01.410Z,16.20
2023-05-23T15:53:32.285Z,16.10
2023-05-23T15:56:03.125Z,16.20
2023-05-23T15:58:32.464Z,16.30
2023-05-23T16:01:01.454Z,16.40
2023-05-23T16:03:31.638Z,16.20
2023-05-23T16:06:00.767Z,16.10
2023-05-23T16:08:29.422Z,16.00
2023-05-23T16:10:58.264Z,16.00
2023-05-23T16:13:26.942Z,16.00
2023-05-23T16:15:55.842Z,15.90
2023-05-23T16:18:24.589Z,16.00
2023-05-23T16:20:54.804Z,16.00
2023-05-23T16:23:23.669Z,16.10
2023-05-23T16:25:53.377Z,16.10
2023-05-23T16:28:22.880Z,16.00
2023-05-23T16:30:52.254Z,15.90
2023-05-23T16:33:20.997Z,15.70
2023-05-23T16:35:49.839Z,15.80
2023-05-23T16:38:20.053Z,15.80
2023-05-23T16:40:48.759Z,15.70
2023-05-23T16:43:17.555Z,15.70
2023-05-23T16:45:47.028Z,15.80
2023-05-23T16:48:16.483Z,15.80
2023-05-23T16:50:45.890Z,15.60
2023-05-23T16:53:14.972Z,15.80
2023-05-23T16:55:48.496Z,15.60
2023-05-23T16:58:21.100Z,15.50
2023-05-23T17:00:54.500Z,15.40
2023-05-23T17:03:24.080Z,15.40
2023-05-23T17:06:04.657Z,15.60
2023-05-23T17:08:34.682Z,15.70
2023-05-23T17:11:05.711Z,15.50
2023-05-23T17:14:03.403Z,15.60
2023-05-23T17:16:33.774Z,15.60
2023-05-23T17:19:03.527Z,15.60
2023-05-23T17:21:33.128Z,15.60
2023-05-23T17:24:10.592Z,15.40
2023-05-23T17:26:42.513Z,15.20
2023-05-23T17:29:11.659Z,15.10
2023-05-23T17:31:40.985Z,15.30
2023-05-23T17:34:12.105Z,15.30
2023-05-23T17:36:40.922Z,15.40
2023-05-23T17:39:10.460Z,15.10
2023-05-23T17:41:40.821Z,15.10
2023-05-23T17:44:09.507Z,15.10
2023-05-23T17:46:38.184Z,15.10
2023-05-23T17:49:07.314Z,15.20
2023-05-23T17:51:36.515Z,14.80
2023-05-23T17:54:05.493Z,14.90
2023-05-23T17:56:34.148Z,14.90
2023-05-23T17:59:06.245Z,14.80
2023-05-23T18:01:35.337Z,14.70
2023-05-23T18:04:04.262Z,14.60
2023-05-23T18:06:33.163Z,14.40
2023-05-23T18:09:04.618Z,14.50
2023-05-23T18:11:34.950Z,14.60
2023-05-23T18:14:08.427Z,14.70
2023-05-23T18:16:47.814Z,14.50
2023-05-23T18:19:17.637Z,14.40
2023-05-23T18:21:47.174Z,14.50
2023-05-23T18:24:16.641Z,14.40
2023-05-23T18:26:45.701Z,14.40
2023-05-23T18:29:16.465Z,14.40
2023-05-23T18:31:48.759Z,14.60
2023-05-23T18:34:17.689Z,14.30
2023-05-23T18:36:47.016Z,14.10
2023-05-23T18:39:17.055Z,14.10
2023-05-23T18:41:46.912Z,14.10
2023-05-23T18:44:20.127Z,14.00
2023-05-23T18:46:50.279Z,14.00
2023-05-23T18:49:19.108Z,14.00
2023-05-23T18:51:48.500Z,13.90
2023-05-23T18:54:17.268Z,13.90
2023-05-23T18:56:46.458Z,13.80
2023-05-23T18:59:47.541Z,13.70
2023-05-23T19:02:39.607Z,13.80
2023-05-23T19:05:39.409Z,13.90
2023-05-23T19:08:36.012Z,13.70
2023-05-23T19:11:08.839Z,13.80
2023-05-23T19:13:38.154Z,14.00
2023-05-23T19:16:10.600Z,14.00
2023-05-23T19:18:39.557Z,14.00
2023-05-23T19:21:08.979Z,13.90
2023-05-23T19:23:48.813Z,13.80
2023-05-23T19:26:20.463Z,13.80
2023-05-23T19:28:50.003Z,13.70
2023-05-23T19:31:20.680Z,13.50
2023-05-23T19:33:49.833Z,13.60
2023-05-23T19:36:18.772Z,13.60
2023-05-23T19:38:47.586Z,13.50
2023-05-23T19:41:20.081Z,13.70
2023-05-23T19:43:51.581Z,13.60
2023-05-23T19:46:22.112Z,13.60
2023-05-23T19:48:51.081Z,13.40
2023-05-23T19:51:21.373Z,13.30
2023-05-23T19:53:50.201Z,13.40
2023-05-23T19:56:19.447Z,13.50
2023-05-23T19:58:48.122Z,13.60
2023-05-23T20:01:16.855Z,13.50
2023-05-23T20:03:47.099Z,13.50
2023-05-23T20:06:16.865Z,13.50
2023-05-23T20:08:45.962Z,13.50
2023-05-23T20:11:14.782Z,13.50
2023-05-23T20:13:43.688Z,13.40
2023-05-23T20:16:13.160Z,13.30
2023-05-23T20:18:44.374Z,13.30
2023-05-23T20:21:15.088Z,13.30
2023-05-23T20:23:45.253Z,13.30
2023-05-23T20:26:14.179Z,13.30
2023-05-23T20:28:43.094Z,13.30
2023-05-23T20:31:11.967Z,13.30
2023-05-23T20:33:40.865Z,13.20
2023-05-23T20:36:09.795Z,13.20
2023-05-23T20:38:40.230Z,13.40
2023-05-23T20:41:08.984Z,13.20
2023-05-23T20:43:38.329Z,13.20
2023-05-23T20:46:09.274Z,13.30
2023-05-23T20:48:38.126Z,13.30
2023-05-23T20:51:08.243Z,13.30
2023-05-23T20:53:39.461Z,13.20
2023-05-23T20:56:10.422Z,13.40
2023-05-23T20:58:39.333Z,13.20
2023-05-23T21:01:08.142Z,13.10
2023-05-23T21:03:37.315Z,13.30
2023-05-23T21:06:06.418Z,13.40
2023-05-23T21:08:35.199Z,13.50
2023-05-23T21:11:05.542Z,13.60
2023-05-23T21:13:34.297Z,13.50
2023-05-23T21:16:03.491Z,13.50
2023-05-23T21:18:36.870Z,13.50
2023-05-23T21:21:05.783Z,13.50
2023-05-23T21:23:34.482Z,13.40
2023-05-23T21:26:04.659Z,13.40
2023-05-23T21:28:33.399Z,13.40
2023-05-23T21:31:03.493Z,13.50
2023-05-23T21:33:32.814Z,13.40
2023-05-23T21:36:02.233Z,13.40
2023-05-23T21:38:31.009Z,13.40
2023-05-23T21:40:59.695Z,13.30
2023-05-23T21:43:29.846Z,13.30
2023-05-23T21:45:58.647Z,13.50
2023-05-23T21:48:27.390Z,13.40
2023-05-23T21:50:56.178Z,13.50
2023-05-23T21:53:24.909Z,13.30
2023-05-23T21:55:53.672Z,13.10
2023-05-23T21:58:22.364Z,13.20
2023-05-23T22:00:52.580Z,13.30
2023-05-23T22:03:22.226Z,13.30
2023-05-23T22:05:51.931Z,13.30
2023-05-23T22:08:20.870Z,13.40
2023-05-23T22:10:49.592Z,13.40
2023-05-23T22:13:19.211Z,13.40
2023-05-23T22:15:48.204Z,13.40
2023-05-23T22:18:18.342Z,13.30
2023-05-23T22:20:48.339Z,13.20
2023-05-23T22:23:17.493Z,13.20
2023-05-23T22:25:46.738Z,13.30
2023-05-23T22:28:15.500Z,13.30
2023-05-23T22:30:44.551Z,13.30
2023-05-23T22:33:17.293Z,13.20
2023-05-23T22:35:48.061Z,13.20
2023-05-23T22:38:16.812Z,13.20
2023-05-23T22:40:45.540Z,13.20
2023-05-23T22:43:14.268Z,13.00
2023-05-23T22:45:43.018Z,13.00
2023-05-23T22:48:12.505Z,13.00
2023-05-23T22:50:41.786Z,13.00
2023-05-23T22:53:12.872Z,13.00
2023-05-23T22:55:41.726Z,13.00
2023-05-23T22:58:10.564Z,13.00
2023-05-23T23:00:39.399Z,13.00
2023-05-23T23:03:08.499Z,13.00
2023-05-23T23:05:37.784Z,12.80
2023-05-23T23:08:06.619Z,12.90
2023-05-23T23:10:36.688Z,12.80
2023-05-23T23:13:05.431Z,12.70
2023-05-23T23:15:34.217Z,12.70
2023-05-23T23:18:02.996Z,12.60
2023-05-23T23:20:31.962Z,12.50
2023-05-23T23:23:00.806Z,12.50
2023-05-23T23:25:30.417Z,12.50
2023-05-23T23:28:01.003Z,12.40
2023-05-23T23:30:29.819Z,12.40
2023-05-23T23:32:58.603Z,12.50
2023-05-23T23:35:27.818Z,12.40
2023-05-23T23:37:58.108Z,12.40
2023-05-23T23:40:26.909Z,12.40
2023-05-23T23:42:55.759Z,12.50
2023-05-23T23:45:25.989Z,12.40
2023-05-23T23:47:54.773Z,12.40
2023-05-23T23:50:23.529Z,12.50
2023-05-23T23:52:52.262Z,12.50
2023-05-23T23:55:21.088Z,12.50
2023-05-23T23:57:49.826Z,12.60
